createdAt,value
2022-09-11T00:03:24.694Z,1.17
2022-09-11T00:08:27.695Z,1.30
2022-09-11T00:13:29.557Z,1.08
2022-09-11T00:18:32.013Z,1.85
2022-09-11T00:23:33.816Z,1.55
2022-09-11T00:28:37.297Z,1.10
2022-09-11T00:33:39.710Z,1.40
2022-09-11T00:38:42.925Z,1.30
2022-09-11T00:43:52.233Z,1.38
2022-09-11T00:48:57.418Z,1.52
2022-09-11T00:54:00.829Z,1.40
2022-09-11T00:59:04.348Z,1.70
2022-09-11T01:04:09.451Z,1.65
2022-09-11T01:09:11.376Z,1.40
2022-09-11T01:14:22.323Z,1.58
2022-09-11T01:19:32.855Z,2.00
2022-09-11T01:24:53.513Z,1.42
2022-09-11T01:30:11.473Z,1.50
2022-09-11T01:35:34.839Z,1.77
2022-09-11T01:40:46.059Z,1.85
2022-09-11T01:45:51.842Z,1.63
2022-09-11T01:50:55.764Z,2.00
2022-09-11T01:56:04.312Z,1.10
2022-09-11T02:01:19.336Z,1.80
2022-09-11T02:06:29.778Z,2.30
2022-09-11T02:11:37.391Z,2.03
2022-09-11T02:17:17.063Z,2.00
2022-09-11T02:22:18.794Z,2.55
2022-09-11T02:27:26.185Z,2.33
2022-09-11T02:32:28.105Z,1.83
2022-09-11T02:37:49.519Z,2.30
2022-09-11T02:43:09.464Z,1.77
2022-09-11T02:48:32.901Z,2.65
2022-09-11T02:53:49.917Z,2.78
2022-09-11T02:58:56.902Z,2.85
2022-09-11T03:03:58.662Z,2.00
2022-09-11T03:09:00.477Z,2.30
2022-09-11T03:14:02.262Z,2.80
2022-09-11T03:19:05.054Z,2.38
2022-09-11T03:24:08.325Z,2.65
2022-09-11T03:29:10.112Z,3.17
2022-09-11T03:34:11.831Z,3.08
2022-09-11T03:39:13.631Z,2.45
2022-09-11T03:44:15.648Z,3.22
2022-09-11T03:49:17.573Z,3.72
2022-09-11T03:54:19.446Z,4.00
2022-09-11T03:59:21.777Z,3.40
2022-09-11T04:04:23.804Z,3.67
2022-09-11T04:09:25.587Z,4.07
2022-09-11T04:14:27.374Z,3.88
2022-09-11T04:19:29.701Z,4.00
2022-09-11T04:24:31.649Z,3.95
2022-09-11T04:29:34.498Z,3.97
2022-09-11T04:34:36.218Z,4.43
2022-09-11T04:39:38.057Z,5.68
2022-09-11T04:44:40.057Z,4.80
2022-09-11T04:49:41.744Z,5.35
2022-09-11T04:54:43.484Z,5.55
2022-09-11T04:59:45.233Z,5.90
2022-09-11T05:04:46.989Z,6.53
2022-09-11T05:09:48.766Z,6.13
2022-09-11T05:14:51.421Z,7.70
2022-09-11T05:19:53.102Z,7.20
2022-09-11T05:24:56.351Z,7.80
2022-09-11T05:29:58.144Z,7.90
2022-09-11T05:34:59.985Z,8.27
2022-09-11T05:40:02.086Z,8.73
2022-09-11T05:45:04.068Z,8.10
2022-09-11T05:50:06.312Z,7.35
2022-09-11T05:55:08.508Z,7.88
2022-09-11T06:00:11.033Z,7.90
2022-09-11T06:05:12.824Z,7.78
2022-09-11T06:10:14.766Z,8.23
2022-09-11T06:15:36.249Z,7.40
2022-09-11T06:20:38.417Z,8.70
2022-09-11T06:25:40.305Z,10.02
2022-09-11T06:30:42.255Z,10.77
2022-09-11T06:35:44.130Z,10.55
2022-09-11T06:40:45.922Z,10.55
2022-09-11T06:45:48.590Z,9.55
2022-09-11T06:50:50.425Z,10.10
2022-09-11T06:55:52.367Z,10.45
2022-09-11T07:00:54.398Z,10.52
2022-09-11T07:05:56.443Z,9.20
2022-09-11T07:11:06.279Z,8.95
2022-09-11T07:16:10.721Z,8.55
2022-09-11T07:21:21.898Z,8.98
2022-09-11T07:26:27.045Z,6.53
2022-09-11T07:31:31.387Z,7.35
2022-09-11T07:36:35.148Z,8.85
2022-09-11T07:41:37.241Z,9.63
2022-09-11T07:46:41.701Z,8.95
2022-09-11T07:51:43.959Z,9.02
2022-09-11T07:56:45.774Z,8.13
2022-09-11T08:01:47.449Z,9.20
2022-09-11T08:06:49.373Z,8.18
2022-09-11T08:11:53.557Z,8.63
2022-09-11T08:16:55.416Z,8.57
2022-09-11T08:21:57.218Z,8.30
2022-09-11T08:26:59.386Z,7.13
2022-09-11T08:32:02.475Z,6.60
2022-09-11T08:37:04.597Z,6.15
2022-09-11T08:42:13.926Z,6.05
2022-09-11T08:47:20.772Z,5.90
2022-09-11T08:52:22.792Z,6.25
2022-09-11T08:57:49.413Z,7.20
2022-09-11T09:03:03.291Z,5.97
2022-09-11T09:08:33.354Z,7.53
2022-09-11T09:14:12.383Z,7.47
2022-09-11T09:19:22.532Z,5.38
2022-09-11T09:24:28.022Z,5.93
2022-09-11T09:29:38.108Z,5.57
2022-09-11T09:34:43.245Z,3.65
2022-09-11T09:39:45.804Z,3.63
2022-09-11T09:45:01.515Z,2.78
2022-09-11T09:50:03.871Z,3.08
2022-09-11T09:55:13.805Z,5.28
2022-09-11T10:00:19.893Z,3.33
2022-09-11T10:05:28.063Z,3.20
2022-09-11T10:10:38.297Z,2.67
2022-09-11T10:15:41.131Z,2.47
2022-09-11T10:20:42.925Z,2.40
2022-09-11T10:25:50.123Z,1.50
2022-09-11T10:31:05.018Z,2.08
2022-09-11T10:36:10.293Z,1.70
2022-09-11T10:41:15.431Z,1.60
2022-09-11T10:46:40.429Z,2.20
2022-09-11T10:51:57.381Z,1.85
2022-09-11T10:57:05.641Z,1.85
2022-09-11T11:02:21.055Z,1.60
2022-09-11T11:07:29.904Z,1.80
2022-09-11T11:12:32.919Z,1.40
2022-09-11T11:17:46.578Z,2.67
2022-09-11T11:23:00.232Z,2.78
2022-09-11T11:28:17.274Z,2.33
2022-09-11T11:33:22.309Z,1.80
2022-09-11T11:38:28.446Z,2.10
2022-09-11T11:43:34.566Z,2.03
2022-09-11T11:48:44.919Z,1.75
2022-09-11T11:54:14.365Z,2.08
2022-09-11T12:00:02.950Z,2.35
2022-09-11T12:05:18.920Z,2.15
2022-09-11T12:10:36.199Z,1.65
2022-09-11T12:15:38.701Z,1.73
2022-09-11T12:20:43.076Z,2.60
2022-09-11T12:25:50.642Z,2.20
2022-09-11T12:31:02.545Z,1.98
2022-09-11T12:36:07.202Z,1.75
2022-09-11T12:41:23.040Z,2.08
2022-09-11T12:46:25.451Z,1.80
2022-09-11T12:51:43.292Z,1.20
2022-09-11T12:56:49.714Z,1.80
2022-09-11T13:01:52.677Z,1.75
2022-09-11T13:07:07.673Z,2.67
2022-09-11T13:12:18.994Z,4.57
2022-09-11T13:17:30.741Z,3.30
2022-09-11T13:22:34.923Z,3.38
2022-09-11T13:27:39.408Z,4.40
2022-09-11T13:32:42.168Z,3.40
2022-09-11T13:40:51.286Z,2.38
2022-09-11T13:45:59.147Z,2.95
2022-09-11T13:51:01.221Z,2.55
2022-09-11T13:56:03.080Z,2.03
2022-09-11T14:01:17.317Z,2.42
2022-09-11T14:06:20.788Z,1.90
2022-09-11T14:11:29.896Z,2.40
2022-09-11T14:18:42.987Z,2.47
2022-09-11T14:23:52.637Z,1.73
2022-09-11T14:29:00.228Z,1.42
2022-09-11T14:34:23.462Z,1.70
2022-09-11T14:39:29.814Z,1.20
2022-09-11T14:44:33.068Z,1.27
2022-09-11T14:49:35.124Z,1.75
2022-09-11T14:54:37.173Z,1.20
2022-09-11T14:59:39.139Z,1.55
2022-09-11T15:04:41.441Z,1.48
2022-09-11T15:09:43.643Z,1.20
2022-09-11T15:14:56.660Z,1.30
2022-09-11T15:20:00.658Z,1.40
2022-09-11T15:25:03.870Z,1.40
2022-09-11T15:30:06.104Z,1.25
2022-09-11T15:35:08.241Z,1.30
2022-09-11T15:40:10.912Z,1.20
2022-09-11T15:45:13.890Z,1.27
2022-09-11T15:50:20.263Z,1.20
2022-09-11T15:55:22.412Z,1.35
2022-09-11T16:00:24.055Z,1.27
2022-09-11T16:05:26.145Z,1.13
2022-09-11T16:10:28.110Z,1.38
2022-09-11T16:15:29.955Z,0.90
2022-09-11T16:20:33.434Z,1.00
2022-09-11T16:25:41.389Z,1.00
2022-09-11T16:30:46.554Z,1.35
2022-09-11T16:36:06.033Z,1.27
2022-09-11T16:41:16.806Z,1.08
2022-09-11T16:46:24.437Z,1.05
2022-09-11T16:51:26.596Z,0.68
2022-09-11T16:56:28.504Z,1.20
2022-09-11T17:01:30.651Z,0.88
2022-09-11T17:06:33.071Z,0.90
2022-09-11T17:11:36.557Z,1.15
2022-09-11T17:16:38.997Z,1.33
2022-09-11T17:21:40.950Z,1.08
2022-09-11T17:26:42.889Z,1.10
2022-09-11T17:31:44.763Z,1.40
2022-09-11T17:36:46.675Z,0.88
2022-09-11T17:41:48.874Z,1.27
2022-09-11T17:46:52.526Z,1.10
2022-09-11T17:51:54.783Z,1.45
2022-09-11T17:56:57.982Z,2.42
2022-09-11T18:02:01.305Z,1.73
2022-09-11T18:07:03.973Z,1.73
2022-09-11T18:12:06.178Z,1.75
2022-09-11T18:17:08.002Z,1.92
2022-09-11T18:22:10.293Z,1.55
2022-09-11T18:27:12.678Z,1.88
2022-09-11T18:32:14.549Z,1.40
2022-09-11T18:37:17.525Z,1.27
2022-09-11T18:42:19.234Z,0.90
2022-09-11T18:47:22.294Z,1.20
2022-09-11T18:52:26.286Z,1.30
2022-09-11T18:57:28.740Z,1.38
2022-09-11T19:02:30.579Z,1.55
2022-09-11T19:07:32.642Z,1.40
2022-09-11T19:12:34.607Z,1.50
2022-09-11T19:17:38.281Z,1.30
2022-09-11T19:22:41.103Z,1.83
2022-09-11T19:27:42.966Z,1.48
2022-09-11T19:32:45.062Z,1.38
2022-09-11T19:37:47.510Z,1.30
2022-09-11T19:42:49.341Z,1.70
2022-09-11T19:47:51.502Z,1.30
2022-09-11T19:52:53.562Z,1.58
2022-09-11T19:57:55.534Z,1.70
2022-09-11T20:02:57.932Z,1.40
2022-09-11T20:08:00.534Z,1.50
2022-09-11T20:13:03.461Z,1.00
2022-09-11T20:18:05.641Z,1.42
2022-09-11T20:23:07.886Z,1.50
2022-09-11T20:28:10.846Z,1.15
2022-09-11T20:33:13.488Z,1.50
2022-09-11T20:38:17.727Z,1.52
2022-09-11T20:43:19.487Z,1.17
2022-09-11T20:48:21.521Z,1.60
2022-09-11T20:53:23.438Z,1.30
2022-09-11T20:58:25.340Z,1.10
2022-09-11T21:03:28.120Z,1.60
2022-09-11T21:08:29.936Z,1.20
2022-09-11T21:13:35.395Z,0.90
2022-09-11T21:18:38.344Z,1.33
2022-09-11T21:23:40.270Z,1.55
2022-09-11T21:28:42.818Z,1.60
2022-09-11T21:33:44.996Z,1.20
2022-09-11T21:38:46.832Z,1.27
2022-09-11T21:43:48.811Z,1.30
2022-09-11T21:48:50.716Z,1.48
2022-09-11T21:53:59.194Z,1.30
2022-09-11T21:59:01.305Z,1.30
2022-09-11T22:04:03.352Z,1.05
2022-09-11T22:09:05.147Z,1.65
2022-09-11T22:14:07.048Z,1.35
2022-09-11T22:19:09.678Z,1.20
2022-09-11T22:24:11.523Z,1.20
2022-09-11T22:29:13.422Z,1.20
2022-09-11T22:34:15.193Z,1.50
2022-09-11T22:39:16.899Z,1.73
2022-09-11T22:44:19.906Z,1.30
2022-09-11T22:49:21.633Z,1.30
2022-09-11T22:54:23.419Z,1.40
2022-09-11T22:59:25.458Z,1.45
2022-09-11T23:04:27.337Z,1.55
2022-09-11T23:09:29.135Z,1.60
2022-09-11T23:14:30.978Z,1.60
2022-09-11T23:19:34.579Z,1.67
2022-09-11T23:24:36.287Z,1.23
2022-09-11T23:29:37.989Z,1.38
2022-09-11T23:34:39.880Z,2.35
2022-09-11T23:39:43.271Z,1.55
2022-09-11T23:44:45.191Z,1.65
2022-09-11T23:49:48.142Z,1.60
2022-09-11T23:54:49.907Z,1.88
2022-09-11T23:59:51.751Z,1.67
